Flight Track Log - Related Links

Times and Time Zones

All times are in EDT time to prevent confusion due to time zone crossing. See the SKW2988 flight status page for this flight to view local times or setup timezone preferences in your user account.

Time Position Orientation Groundspeed Altitude Reporting Facility
EDT Latitude Longitude Course Direction KTS MPH feet Rate Location/Type
Fri 12:57:35 AM 33.4333 -112.0000 90° East 150 173 1,800  Level Phoenix TRACON
Fri 12:58:47 AM 33.4333 -111.9167 90° East 191 220 4,300 2,067 Climbing Phoenix TRACON
Fri 12:59:05 AM 33.4378 -111.9050 65° Northeast 191 220 4,900 1,747 Climbing Albuquerque Center
Fri 01:00:06 AM 33.4608 -111.8319 69° East 254 292 6,600 1,983 Climbing Albuquerque Center
Fri 01:01:06 AM 33.5075 -111.7589 53° Northeast 277 319 8,900 2,231 Climbing Albuquerque Center
Fri 01:02:07 AM 33.5425 -111.6711 64° Northeast 294 338 11,100 2,115 Climbing Albuquerque Center
Fri 01:03:08 AM 33.5753 -111.5822 66° East 295 339 13,200 2,016 Climbing Albuquerque Center
Fri 01:04:09 AM 33.6086 -111.4886 67° East 304 350 15,200 1,785 Climbing Albuquerque Center
Fri 01:05:09 AM 33.6447 -111.3906 66° East 321 369 16,800 1,587 Climbing Albuquerque Center
Fri 01:06:10 AM 33.6819 -111.2878 66° East 337 388 18,400 1,574 Climbing Albuquerque Center
Fri 01:07:11 AM 33.7183 -111.1836 67° East 341 392 20,000 1,475 Climbing Albuquerque Center
Fri 01:08:12 AM 33.7558 -111.0772 67° East 347 399 21,400 1,240 Climbing Albuquerque Center
Fri 01:09:12 AM 33.7950 -110.9669 67° East 359 413 22,500 1,140 Climbing Albuquerque Center
Fri 01:10:13 AM 33.8358 -110.8519 67° East 370 426 23,700 1,328 Climbing Albuquerque Center
Fri 01:11:14 AM 33.8842 -110.7128 67° East 375 432 25,200 1,289 Climbing Albuquerque Center
Fri 01:12:14 AM 33.9261 -110.5953 67° East 381 438 26,300 893 Climbing Albuquerque Center
Fri 01:13:15 AM 33.9681 -110.4764 67° East 384 442 27,000 344 Climbing Albuquerque Center
Fri 01:14:16 AM 34.0050 -110.3606 69° East 398 458 27,000  Level Albuquerque Center
Fri 01:15:17 AM 34.0414 -110.2211 72° East 428 493 27,000  Level Albuquerque Center
Fri 01:16:17 AM 34.0819 -110.0594 73° East 440 506 27,000  Level Albuquerque Center
Fri 01:17:18 AM 34.1158 -109.9242 73° East 440 506 27,000  Level Albuquerque Center
Fri 01:18:19 AM 34.1497 -109.7892 73° East 442 509 27,000  Level Albuquerque Center
Fri 01:19:19 AM 34.1903 -109.6308 73° East 442 509 27,000  Level Albuquerque Center
Fri 01:20:20 AM 34.2233 -109.4925 74° East 445 512 27,000  Level Albuquerque Center
Fri 01:21:21 AM 34.2600 -109.3447 73° East 445 512 27,000  Level Albuquerque Center
Fri 01:22:21 AM 34.2944 -109.2011 74° East 446 513 27,000  Level Albuquerque Center
Fri 01:23:22 AM 34.3289 -109.0589 74° East 446 513 27,000  Level Albuquerque Center
Fri 01:24:23 AM 34.3614 -108.9228 74° East 443 510 27,000  Level Albuquerque Center
Fri 01:25:23 AM 34.4003 -108.7639 73° East 442 509 27,000  Level Albuquerque Center
Fri 01:26:24 AM 34.4325 -108.6269 74° East 442 509 27,000  Level Albuquerque Center
Fri 01:27:24 AM 34.4644 -108.4886 74° East 444 511 27,000  Level Albuquerque Center
Fri 01:28:25 AM 34.4992 -108.3442 74° East 442 509 27,000  Level Albuquerque Center
Fri 01:29:26 AM 34.5322 -108.2022 74° East 440 506 27,000  Level Albuquerque Center
Fri 01:30:26 AM 34.5647 -108.0614 74° East 437 503 27,000 -545 Level Albuquerque Center
Fri 01:31:27 AM 34.5983 -107.9194 74° East 439 505 25,900 -1,537 Descending Albuquerque Center
Fri 01:32:27 AM 34.6333 -107.7808 73° East 432 497 23,900 -1,983 Descending Albuquerque Center
Fri 01:33:28 AM 34.6861 -107.6636 61° Northeast 404 465 21,900 -1,918 Descending Albuquerque Center
Fri 01:34:29 AM 34.7344 -107.5489 63° Northeast 388 447 20,000 -2,000 Descending Albuquerque Center
Fri 01:35:07 AM 34.7689 -107.4636 64° Northeast 364 419 18,600 -1,800 Descending Albuquerque Center
Fri 01:35:29 AM 34.7814 -107.4408 56° Northeast 370 426 18,200 -1,111 Descending Albuquerque Center
Fri 01:36:01 AM 34.8103 -107.3683 64° Northeast 336 387 17,600 -1,082 Descending Albuquerque Center
Fri 01:36:30 AM 34.8233 -107.3417 59° Northeast 343 395 17,100 -1,770 Descending Albuquerque Center
Fri 01:37:02 AM 34.8517 -107.2728 63° Northeast 313 360 15,800 -2,200 Descending Albuquerque Center
Fri 01:37:30 AM 34.8703 -107.2283 63° Northeast 318 366 14,900 -1,800 Descending Albuquerque Center
Fri 01:38:02 AM 34.8894 -107.1806 64° Northeast 306 352 14,000 -1,869 Descending Albuquerque Center
Fri 01:38:31 AM 34.9083 -107.1361 63° Northeast 310 357 13,000 -1,672 Descending Albuquerque Center
Fri 01:39:03 AM 34.9272 -107.0908 63° Northeast 297 342 12,300 -1,500 Descending Albuquerque Center
Fri 01:39:31 AM 34.9456 -107.0497 61° Northeast 299 344 11,500 -1,475 Descending Albuquerque Center
Fri 01:40:04 AM 34.9642 -107.0064 62° Northeast 284 327 10,800 -1,475 Descending Albuquerque Center
Fri 01:40:32 AM 34.9811 -106.9656 63° Northeast 290 334 10,000 -1,500 Descending Albuquerque Center
Fri 01:41:04 AM 35.0006 -106.9222 61° Northeast 277 319 9,300 -1,279 Descending Albuquerque Center
Fri 01:41:33 AM 35.0167 -106.8831 63° Northeast 283 326 8,700 -1,082 Descending Albuquerque Center
Fri 01:42:05 AM 35.0303 -106.8342 71° East 252 290 8,200 -717 Descending Albuquerque Center
Fri 01:43:05 AM 35.0417 -106.7639 79° East 200 230 7,600 -539 Descending Albuquerque Center
Fri 01:43:34 AM 35.0442 -106.7406 83° East 224 258 7,400 -787 Descending Albuquerque Center
Fri 01:44:06 AM 35.0447 -106.7086 89° East 146 168 6,800 -900 Descending Albuquerque Center
Fri 01:44:34 AM 35.0444 -106.6900 91° East 176 203 6,500 -689 Descending Albuquerque Center
Fri 01:45:07 AM 35.0431 -106.6625 94° East 122 140 6,100 -590 Descending Albuquerque Center
Fri 01:45:35 AM 35.0442 -106.6475 85° East 149 171 5,900 -477 Descending Albuquerque Center
Fri 01:46:35 AM 35.0442 -106.6025 90° East 136 157 5,400 -500 Descending Albuquerque Center
Fri 01:48:00 AM 35.0333 -106.6000 North  Level FlightAware Approximate

Login

Don't have an account? Register now (free) for customized features, flight alerts, and more!